Time;durP1;ratioP1;P1;durP2;ratioP2;P2;SDS_P1;SDS_P2;PMS_P1;PMS_P2;Temp;Humidity;BMP_temperature;BMP_pressure;BME280_temperature;BME280_humidity;BME280_pressure;Samples;Min_cycle;Max_cycle;Signal;HPM_P1;HPM_P2
2022/07/12 00:02:04;;;;;;;5.00;2.90;;;;;;;12.70;100.00;101709.29;107986;1277;71639;-83
2022/07/12 00:04:32;;;;;;;4.20;2.40;;;;;;;12.67;100.00;101706.33;108148;1276;61294;-83
2022/07/12 00:06:58;;;;;;;4.30;2.70;;;;;;;12.66;100.00;101705.60;108237;1277;61749;-83
2022/07/12 00:09:25;;;;;;;5.20;2.80;;;;;;;12.63;100.00;101707.06;107991;1277;74678;-83
2022/07/12 00:11:52;;;;;;;3.00;2.00;;;;;;;12.62;100.00;101712.00;108167;1276;71123;-83
2022/07/12 00:14:20;;;;;;;4.70;2.90;;;;;;;12.59;100.00;101710.50;108190;1276;74472;-83
2022/07/12 00:16:47;;;;;;;5.30;2.50;;;;;;;12.58;100.00;101711.70;107933;1277;60453;-83
2022/07/12 00:19:14;;;;;;;3.00;1.90;;;;;;;12.57;100.00;101718.09;107997;1277;60475;-83
2022/07/12 00:21:41;;;;;;;3.60;2.90;;;;;;;12.56;100.00;101722.58;107855;1276;76672;-83
2022/07/12 00:24:08;;;;;;;3.80;2.40;;;;;;;12.56;100.00;101722.95;108203;1276;72607;-83
2022/07/12 00:26:35;;;;;;;4.00;2.70;;;;;;;12.57;100.00;101718.92;108200;1277;73653;-84
2022/07/12 00:29:02;;;;;;;3.80;2.20;;;;;;;12.59;100.00;101714.86;108246;1275;64388;-83
2022/07/12 00:31:29;;;;;;;3.90;2.20;;;;;;;12.60;100.00;101720.91;108238;1276;61855;-83
2022/07/12 00:33:56;;;;;;;4.80;2.30;;;;;;;12.62;100.00;101719.27;108216;1276;74989;-83
2022/07/12 00:36:23;;;;;;;3.80;2.20;;;;;;;12.64;100.00;101718.73;108282;1273;72258;-83
2022/07/12 00:38:50;;;;;;;4.80;2.30;;;;;;;12.67;100.00;101719.71;108535;1277;73910;-83
2022/07/12 00:41:17;;;;;;;6.50;2.80;;;;;;;12.70;100.00;101720.80;108402;1276;62140;-84
2022/07/12 00:43:45;;;;;;;4.40;2.40;;;;;;;12.73;100.00;101720.14;108450;1276;60625;-84
2022/07/12 00:46:14;;;;;;;3.10;2.30;;;;;;;12.76;100.00;101717.98;108578;1276;74975;-84
2022/07/12 00:48:41;;;;;;;5.50;2.50;;;;;;;12.81;100.00;101713.57;108544;1277;71358;-84
2022/07/12 00:51:09;;;;;;;4.70;3.00;;;;;;;12.85;100.00;101709.77;108142;1276;70958;-84
2022/07/12 00:53:36;;;;;;;5.00;3.30;;;;;;;12.89;100.00;101713.02;108138;1277;62524;-84
2022/07/12 00:56:07;;;;;;;4.60;2.50;;;;;;;12.94;100.00;101712.39;108020;1277;60564;-83
2022/07/12 00:58:33;;;;;;;4.00;2.60;;;;;;;12.98;100.00;101713.89;108322;1277;76316;-84
2022/07/12 01:01:00;;;;;;;4.30;2.60;;;;;;;13.01;100.00;101711.01;108059;1275;71576;-85
2022/07/12 01:03:28;;;;;;;4.00;2.80;;;;;;;13.05;100.00;101704.92;108031;1276;73100;-83
2022/07/12 01:05:55;;;;;;;4.40;2.40;;;;;;;13.09;100.00;101703.80;108212;1276;62590;-84
2022/07/12 01:08:23;;;;;;;3.20;2.20;;;;;;;13.12;100.00;101703.30;108292;1277;60653;-84
2022/07/12 01:10:50;;;;;;;3.60;2.70;;;;;;;13.15;100.00;101702.40;107987;1277;76105;-84
2022/07/12 01:13:17;;;;;;;3.30;2.20;;;;;;;13.20;100.00;101702.60;108081;1276;70126;-84
2022/07/12 01:15:46;;;;;;;3.40;2.10;;;;;;;13.24;100.00;101703.23;108022;1276;74637;-84
2022/07/12 01:18:15;;;;;;;4.80;2.20;;;;;;;13.29;100.00;101701.67;107388;1277;819756;-83
2022/07/12 01:20:43;;;;;;;3.50;2.10;;;;;;;13.32;100.00;101698.98;107970;1277;61430;-84
2022/07/12 01:23:12;;;;;;;4.10;2.00;;;;;;;13.35;100.00;101696.14;108112;1276;72377;-84
2022/07/12 01:25:39;;;;;;;4.10;2.70;;;;;;;13.40;100.00;101697.81;108553;1276;71398;-84
2022/07/12 01:28:06;;;;;;;3.30;2.00;;;;;;;13.43;100.00;101694.05;108400;1276;73956;-84
2022/07/12 01:30:33;;;;;;;4.10;3.00;;;;;;;13.47;100.00;101696.47;108368;1277;61165;-84
2022/07/12 01:33:00;;;;;;;4.10;2.80;;;;;;;13.51;100.00;101696.20;108485;1277;61431;-84
2022/07/12 01:35:28;;;;;;;4.30;2.80;;;;;;;13.55;100.00;101695.63;108357;1278;74905;-84
2022/07/12 01:37:55;;;;;;;3.80;2.30;;;;;;;13.58;100.00;101697.01;108496;1277;71972;-84
2022/07/12 01:40:22;;;;;;;4.40;2.30;;;;;;;13.61;100.00;101694.02;108301;1277;71544;-83
2022/07/12 01:42:51;;;;;;;4.40;2.60;;;;;;;13.64;100.00;101696.90;108647;1276;62022;-83
2022/07/12 01:45:18;;;;;;;4.00;2.50;;;;;;;13.66;100.00;101694.69;108485;1277;58919;-84
2022/07/12 01:47:45;;;;;;;4.30;2.50;;;;;;;13.69;100.00;101692.98;108427;1277;74654;-83
2022/07/12 01:50:12;;;;;;;3.80;2.60;;;;;;;13.71;100.00;101696.64;108241;1277;74540;-83
2022/07/12 01:52:40;;;;;;;5.30;3.70;;;;;;;13.77;100.00;101697.09;108000;1276;74670;-83
2022/07/12 01:55:08;;;;;;;4.40;3.40;;;;;;;13.90;100.00;101696.18;107993;1277;61452;-83
2022/07/12 01:57:36;;;;;;;4.40;3.30;;;;;;;14.06;100.00;101695.42;108212;1276;60349;-84
2022/07/12 02:00:05;;;;;;;4.60;3.90;;;;;;;14.21;100.00;101688.89;108189;1275;75438;-83
2022/07/12 02:02:32;;;;;;;4.90;3.50;;;;;;;14.36;100.00;101683.59;108162;1276;71182;-84
2022/07/12 02:05:01;;;;;;;4.40;3.10;;;;;;;14.50;100.00;101686.18;108183;1277;73549;-84
2022/07/12 02:07:29;;;;;;;5.40;3.40;;;;;;;14.60;100.00;101689.77;107946;1277;62162;-84
2022/07/12 02:09:57;;;;;;;5.30;3.20;;;;;;;14.71;100.00;101682.71;108146;1276;60750;-84
2022/07/12 02:12:24;;;;;;;4.00;3.10;;;;;;;14.80;100.00;101680.94;107826;1277;73985;-84
2022/07/12 02:14:51;;;;;;;4.60;3.10;;;;;;;14.88;99.92;101675.86;107931;1277;73321;-84
2022/07/12 02:17:18;;;;;;;4.50;3.20;;;;;;;14.96;99.66;101672.70;108135;1276;71911;-85
2022/07/12 02:19:45;;;;;;;5.10;3.20;;;;;;;15.01;99.06;101669.63;107964;1277;62311;-84
2022/07/12 02:22:12;;;;;;;4.90;3.20;;;;;;;15.07;98.69;101673.70;107856;1277;61833;-84
2022/07/12 02:24:39;;;;;;;4.50;3.20;;;;;;;15.13;98.49;101675.65;108170;1276;75818;-84
2022/07/12 02:27:06;;;;;;;4.30;3.10;;;;;;;15.17;98.09;101674.08;108132;1276;71494;-84
2022/07/12 02:29:33;;;;;;;5.00;3.30;;;;;;;15.18;97.35;101676.30;107958;1277;74953;-84
2022/07/12 02:32:01;;;;;;;3.80;2.70;;;;;;;15.19;97.21;101676.70;107914;1277;62890;-84
2022/07/12 02:34:28;;;;;;;4.80;3.20;;;;;;;15.22;96.95;101673.54;108180;1276;60584;-84
2022/07/12 02:36:58;;;;;;;4.90;3.30;;;;;;;15.26;96.81;101677.02;108104;1276;76232;-84
2022/07/12 02:39:25;;;;;;;4.40;3.30;;;;;;;15.27;96.45;101680.52;108028;1276;73619;-84
2022/07/12 02:41:52;;;;;;;4.30;2.90;;;;;;;15.29;96.21;101681.63;107847;1276;73993;-84
2022/07/12 02:44:19;;;;;;;4.80;3.30;;;;;;;15.31;96.15;101681.37;107817;1277;61230;-84
2022/07/12 02:46:46;;;;;;;5.30;3.40;;;;;;;15.32;95.87;101681.78;107798;1277;61019;-84
2022/07/12 02:49:13;;;;;;;4.50;3.10;;;;;;;15.33;95.86;101682.17;107813;1276;75268;-84
2022/07/12 02:51:40;;;;;;;4.70;3.30;;;;;;;15.34;95.83;101683.47;107881;1277;70428;-84
2022/07/12 02:54:07;;;;;;;4.40;3.30;;;;;;;15.35;95.66;101682.49;108127;1276;73802;-84
2022/07/12 02:56:34;;;;;;;6.00;4.10;;;;;;;15.36;95.80;101681.65;107887;1277;62048;-84
2022/07/12 02:59:01;;;;;;;6.20;3.90;;;;;;;15.39;95.79;101690.54;108087;1277;60663;-84
2022/07/12 03:01:28;;;;;;;6.40;4.10;;;;;;;15.43;95.68;101696.29;107733;1277;74803;-85
2022/07/12 03:03:55;;;;;;;4.80;3.30;;;;;;;15.45;95.37;101697.67;107933;1277;71350;-84
2022/07/12 03:06:22;;;;;;;5.90;3.30;;;;;;;15.48;95.42;101699.08;107717;1276;71912;-84
2022/07/12 03:08:50;;;;;;;4.40;3.40;;;;;;;15.51;95.15;101701.29;107811;1277;63388;-84
2022/07/12 03:11:17;;;;;;;5.60;3.40;;;;;;;15.54;95.09;101714.17;107759;1277;60814;-84
2022/07/12 03:13:44;;;;;;;4.60;3.30;;;;;;;15.55;94.91;101718.80;107878;1277;75523;-84
2022/07/12 03:16:11;;;;;;;5.20;3.00;;;;;;;15.56;94.95;101723.88;107828;1277;70637;-84
2022/07/12 03:18:40;;;;;;;4.60;3.10;;;;;;;15.58;94.82;101720.04;107908;1277;74319;-84
2022/07/12 03:21:07;;;;;;;5.20;3.00;;;;;;;15.61;94.86;101723.25;108048;1277;62141;-84
2022/07/12 03:23:34;;;;;;;6.10;3.60;;;;;;;15.65;94.88;101721.07;107897;1277;61969;-84
2022/07/12 03:26:02;;;;;;;4.50;3.30;;;;;;;15.68;94.55;101723.84;107891;1277;76629;-84
2022/07/12 03:28:33;;;;;;;4.70;3.20;;;;;;;15.70;94.36;101723.64;108085;1276;72923;-84
2022/07/12 03:31:01;;;;;;;6.00;3.80;;;;;;;15.73;94.32;101725.42;107764;1277;72753;-84
2022/07/12 03:33:28;;;;;;;4.80;3.60;;;;;;;15.76;94.37;101729.55;107927;1277;64492;-84
2022/07/12 03:35:59;;;;;;;4.80;3.40;;;;;;;15.80;94.46;101733.35;108030;1276;60644;-84
2022/07/12 03:38:27;;;;;;;5.00;3.10;;;;;;;15.82;93.96;101737.34;108078;1277;75516;-84
2022/07/12 03:40:54;;;;;;;6.60;3.60;;;;;;;15.81;93.67;101740.72;107766;1276;73086;-84
2022/07/12 03:43:21;;;;;;;5.40;3.60;;;;;;;15.83;93.88;101744.05;108054;1277;73868;-84
2022/07/12 03:45:48;;;;;;;4.50;3.80;;;;;;;15.86;93.85;101746.39;108179;1277;60930;-84
2022/07/12 03:48:14;;;;;;;4.80;3.60;;;;;;;15.89;93.72;101753.65;108109;1276;60445;-84
2022/07/12 03:50:41;;;;;;;5.60;3.50;;;;;;;15.93;93.74;101756.91;108186;1277;75375;-84
2022/07/12 03:53:08;;;;;;;6.60;4.00;;;;;;;15.95;93.31;101754.59;108094;1277;72594;-84
2022/07/12 03:55:35;;;;;;;7.30;3.90;;;;;;;15.97;93.24;101756.34;108230;1275;73346;-85
2022/07/12 03:58:01;;;;;;;5.40;3.80;;;;;;;15.99;93.12;101751.47;108022;1277;63131;-85
2022/07/12 04:00:28;;;;;;;5.40;3.50;;;;;;;16.01;93.01;101755.47;108049;1278;60435;-84
2022/07/12 04:02:55;;;;;;;7.00;3.60;;;;;;;16.03;92.85;101755.17;107985;1277;76347;-85
2022/07/12 04:05:25;;;;;;;6.00;3.60;;;;;;;16.07;92.83;101755.05;108115;1276;72581;-84
2022/07/12 04:07:53;;;;;;;5.30;3.80;;;;;;;16.11;92.48;101755.14;107911;1276;73389;-84
2022/07/12 04:10:20;;;;;;;5.70;3.80;;;;;;;16.14;92.08;101756.05;108079;1275;63380;-84
2022/07/12 04:12:47;;;;;;;4.30;3.40;;;;;;;16.17;91.99;101759.79;108205;1275;60951;-84
2022/07/12 04:15:14;;;;;;;4.80;3.30;;;;;;;16.20;91.79;101761.31;108137;1277;76766;-84
2022/07/12 04:17:41;;;;;;;5.20;3.60;;;;;;;16.24;91.71;101760.17;107997;1277;71514;-84
2022/07/12 04:20:10;;;;;;;4.90;3.70;;;;;;;16.28;91.52;101760.75;108111;1277;74131;-84
2022/07/12 04:22:36;;;;;;;5.10;3.80;;;;;;;16.31;91.23;101764.50;108212;1277;62119;-84
2022/07/12 04:25:05;;;;;;;4.70;3.70;;;;;;;16.33;90.84;101764.08;108194;1277;60591;-84
2022/07/12 04:27:32;;;;;;;5.50;3.90;;;;;;;16.33;90.59;101760.48;107780;1277;75688;-84
2022/07/12 04:30:02;;;;;;;5.00;3.70;;;;;;;16.34;90.58;101763.98;107733;1277;70354;-85
2022/07/12 04:32:30;;;;;;;4.30;3.20;;;;;;;16.34;90.31;101768.94;108061;1276;72654;-85
2022/07/12 04:34:57;;;;;;;4.70;3.50;;;;;;;16.34;90.17;101765.64;107829;1277;63251;-84
2022/07/12 04:37:24;;;;;;;4.20;3.50;;;;;;;16.36;90.37;101768.96;108075;1277;60423;-84
2022/07/12 04:39:51;;;;;;;5.50;3.50;;;;;;;16.40;90.45;101779.45;107770;1277;74970;-84
2022/07/12 04:42:19;;;;;;;6.00;3.70;;;;;;;16.44;90.30;101782.96;108083;1277;71648;-84
2022/07/12 04:44:46;;;;;;;4.80;3.90;;;;;;;16.46;90.10;101785.47;107961;1277;74682;-84
2022/07/12 04:47:14;;;;;;;5.20;3.60;;;;;;;16.47;89.81;101786.05;107861;1277;63165;-83
2022/07/12 04:49:40;;;;;;;6.30;4.10;;;;;;;16.48;89.87;101784.70;108123;1277;60603;-84
2022/07/12 04:52:07;;;;;;;5.00;3.90;;;;;;;16.52;89.94;101783.55;107855;1277;76248;-84
2022/07/12 04:54:35;;;;;;;5.70;3.80;;;;;;;16.57;89.74;101786.66;108006;1277;71545;-84
2022/07/12 04:57:02;;;;;;;5.50;4.10;;;;;;;16.61;89.47;101789.27;108090;1277;73187;-83
2022/07/12 04:59:29;;;;;;;5.60;3.80;;;;;;;16.65;89.18;101790.88;107940;1277;62135;-84
2022/07/12 05:01:56;;;;;;;6.90;3.90;;;;;;;16.65;88.61;101791.90;107910;1277;60395;-84
2022/07/12 05:04:24;;;;;;;5.00;3.40;;;;;;;16.66;88.36;101795.38;108131;1277;76486;-83
2022/07/12 05:06:52;;;;;;;4.40;3.80;;;;;;;16.68;88.11;101791.55;107985;1277;71171;-84
2022/07/12 05:09:19;;;;;;;5.30;3.30;;;;;;;16.70;87.56;101793.48;108126;1275;73363;-84
2022/07/12 05:11:47;;;;;;;5.20;3.50;;;;;;;16.73;87.43;101793.86;107939;1277;62336;-84
2022/07/12 05:14:14;;;;;;;6.40;3.60;;;;;;;16.77;86.81;101791.19;107996;1276;60730;-84
2022/07/12 05:16:41;;;;;;;4.90;3.10;;;;;;;16.81;86.54;101794.99;107957;1277;75372;-83
2022/07/12 05:19:09;;;;;;;5.00;3.10;;;;;;;16.87;85.81;101796.61;108147;1276;72100;-83
2022/07/12 05:21:36;;;;;;;6.20;3.60;;;;;;;16.95;85.69;101793.96;107924;1277;72980;-84
2022/07/12 05:24:04;;;;;;;7.10;3.80;;;;;;;17.02;84.61;101794.07;108125;1277;62670;-83
2022/07/12 05:26:30;;;;;;;7.70;4.10;;;;;;;17.06;84.08;101795.97;107804;1276;60728;-84
2022/07/12 05:28:57;;;;;;;8.70;4.10;;;;;;;17.08;83.34;101796.45;108148;1276;75314;-84
2022/07/12 05:31:25;;;;;;;9.70;4.30;;;;;;;17.10;83.27;101797.12;107951;1276;70476;-83
2022/07/12 05:33:52;;;;;;;13.00;5.20;;;;;;;17.14;82.99;101800.25;108159;1276;71900;-84
2022/07/12 05:36:19;;;;;;;13.10;5.60;;;;;;;17.18;82.83;101801.73;108121;1276;62593;-83
2022/07/12 05:38:47;;;;;;;15.00;5.50;;;;;;;17.26;82.78;101801.45;108122;1276;59489;-83
2022/07/12 05:41:14;;;;;;;14.30;5.20;;;;;;;17.37;82.08;101800.42;108131;1276;75083;-83
2022/07/12 05:43:41;;;;;;;8.60;4.20;;;;;;;17.47;81.54;101802.95;108110;1277;71406;-83
2022/07/12 05:46:08;;;;;;;6.30;3.40;;;;;;;17.55;79.87;101802.89;107993;1276;73094;-83
2022/07/12 05:48:36;;;;;;;9.60;3.70;;;;;;;17.60;78.47;101803.79;107840;1276;63313;-82
2022/07/12 05:53:53;;;;;;;5.70;3.00;;;;;;;17.75;77.53;101799.77;108102;1276;73693;-86
2022/07/12 05:56:20;;;;;;;7.10;3.40;;;;;;;17.80;75.90;101799.48;107948;1276;71360;-86
2022/07/12 05:58:48;;;;;;;7.00;3.50;;;;;;;17.77;74.49;101799.75;108210;1276;73034;-87
2022/07/12 06:01:17;;;;;;;7.60;3.80;;;;;;;17.76;74.72;101794.38;107921;1277;63272;-87
2022/07/12 06:03:44;;;;;;;6.50;3.50;;;;;;;17.79;75.16;101794.23;108265;1277;60385;-86
2022/07/12 06:06:11;;;;;;;4.80;3.40;;;;;;;17.88;75.16;101794.73;108151;1276;74055;-87
2022/07/12 06:08:41;;;;;;;5.50;3.10;;;;;;;17.96;73.86;101793.83;108104;1277;71455;-86
2022/07/12 06:11:08;;;;;;;6.00;2.70;;;;;;;18.08;73.88;101790.94;108309;1277;73108;-86
2022/07/12 06:13:36;;;;;;;5.70;3.10;;;;;;;18.16;73.12;101791.02;108371;1276;63120;-85
2022/07/12 06:16:09;;;;;;;7.30;4.90;;;;;;;18.28;73.01;101788.45;108413;1276;60324;-85
2022/07/12 06:18:38;;;;;;;3.40;2.40;;;;;;;18.40;72.14;101783.69;108192;1277;74994;-86
2022/07/12 06:21:09;;;;;;;4.30;2.50;;;;;;;18.46;71.59;101785.14;108168;1277;73292;-86
2022/07/12 06:23:36;;;;;;;3.40;2.20;;;;;;;18.57;71.45;101788.77;108205;1276;73353;-86
2022/07/12 06:26:03;;;;;;;3.30;2.70;;;;;;;18.65;70.16;101786.61;108267;1276;62338;-86
2022/07/12 06:28:33;;;;;;;3.70;3.10;;;;;;;18.65;69.68;101784.29;108240;1277;60400;-86
2022/07/12 06:31:01;;;;;;;16.10;11.50;;;;;;;18.72;69.54;101788.77;107969;1277;74972;-86
2022/07/12 06:33:28;;;;;;;5.80;2.90;;;;;;;18.83;69.47;101789.92;108181;1277;74581;-86
2022/07/12 06:35:55;;;;;;;8.10;6.20;;;;;;;18.89;68.29;101792.86;108133;1277;73143;-85
2022/07/12 06:38:23;;;;;;;3.50;2.50;;;;;;;18.91;67.96;101792.83;108189;1276;62334;-86
2022/07/12 06:40:51;;;;;;;3.20;2.30;;;;;;;18.91;67.23;101793.36;108206;1277;60627;-86
2022/07/12 06:43:18;;;;;;;6.10;2.90;;;;;;;18.85;66.40;101795.16;108199;1277;73996;-87
2022/07/12 06:45:44;;;;;;;5.60;2.80;;;;;;;18.92;66.98;101798.58;108188;1276;71706;-86
2022/07/12 06:48:12;;;;;;;3.60;2.60;;;;;;;18.92;66.21;101800.95;107955;1277;74450;-86
2022/07/12 06:50:40;;;;;;;3.10;2.30;;;;;;;18.87;66.03;101806.46;108199;1277;62003;-86
2022/07/12 06:53:07;;;;;;;3.80;3.00;;;;;;;18.84;66.49;101805.05;108096;1277;61528;-86
2022/07/12 06:55:34;;;;;;;5.50;3.70;;;;;;;18.89;66.53;101805.28;108230;1276;73902;-86
2022/07/12 06:58:02;;;;;;;10.80;6.50;;;;;;;19.01;67.10;101798.77;108190;1276;72634;-85
2022/07/12 07:00:29;;;;;;;4.00;2.50;;;;;;;19.31;66.78;101798.35;108060;1277;72885;-86
2022/07/12 07:02:56;;;;;;;2.60;1.90;;;;;;;19.48;64.57;101802.78;107886;1276;63050;-85
2022/07/12 07:05:24;;;;;;;4.60;3.40;;;;;;;19.52;64.00;101800.71;108193;1276;61686;-85
2022/07/12 07:07:52;;;;;;;3.10;2.00;;;;;;;19.60;63.86;101801.51;108076;1277;74251;-85
2022/07/12 07:10:19;;;;;;;3.20;2.10;;;;;;;19.61;63.10;101797.69;108142;1277;72061;-86
2022/07/12 07:12:46;;;;;;;4.50;3.10;;;;;;;19.54;63.12;101797.16;108103;1277;75204;-85
2022/07/12 07:15:15;;;;;;;3.90;2.30;;;;;;;19.49;63.75;101797.90;107897;1276;62334;-86
2022/07/12 07:17:43;;;;;;;3.60;2.30;;;;;;;19.59;63.83;101798.64;108134;1275;64229;-85
2022/07/12 07:20:11;;;;;;;2.50;1.90;;;;;;;19.75;63.76;101794.50;108207;1276;74999;-85
2022/07/12 07:22:39;;;;;;;4.00;2.20;;;;;;;19.91;63.69;101794.34;108048;1277;72614;-85
2022/07/12 07:25:07;;;;;;;3.50;2.10;;;;;;;20.05;62.47;101798.27;108054;1276;74310;-85
2022/07/12 07:27:34;;;;;;;4.40;3.20;;;;;;;20.00;61.59;101795.05;108089;1275;62588;-85
2022/07/12 07:32:46;;;;;;;3.30;2.40;;;;;;;19.55;62.06;101794.67;108207;1276;75168;-85
2022/07/12 07:35:21;;;;;;;3.00;2.50;;;;;;;19.50;62.68;101791.73;108049;1277;71196;-85
2022/07/12 07:37:48;;;;;;;23.90;17.60;;;;;;;19.52;62.72;101793.47;108233;1276;74297;-85
2022/07/12 07:40:15;;;;;;;3.30;2.30;;;;;;;19.54;62.44;101794.39;107895;1277;64048;-85
2022/07/12 07:42:42;;;;;;;3.00;2.20;;;;;;;19.61;62.67;101794.00;108285;1276;60294;-86
2022/07/12 07:45:10;;;;;;;2.80;2.30;;;;;;;19.65;62.47;101795.91;107922;1276;74935;-85
2022/07/12 07:47:45;;;;;;;3.70;2.30;;;;;;;19.69;62.66;101793.73;107939;1277;71826;-85
2022/07/12 07:50:32;;;;;;;3.10;2.10;;;;;;;19.77;62.69;101791.48;108110;1277;75216;-85
2022/07/12 07:52:59;;;;;;;4.70;2.20;;;;;;;19.91;62.84;101787.04;108277;1276;62197;-85
2022/07/12 07:55:26;;;;;;;3.60;2.30;;;;;;;20.02;62.31;101788.09;107991;1276;59344;-85
2022/07/12 07:57:53;;;;;;;3.50;2.20;;;;;;;20.08;61.52;101791.97;108153;1277;75440;-85
2022/07/12 08:00:21;;;;;;;3.70;2.40;;;;;;;19.94;60.78;101791.38;107948;1276;71650;-85
2022/07/12 08:02:48;;;;;;;3.30;2.20;;;;;;;19.91;61.89;101789.02;108120;1276;74176;-84
2022/07/12 08:05:15;;;;;;;3.00;2.50;;;;;;;20.00;61.34;101792.35;108084;1276;63469;-85
2022/07/12 08:07:42;;;;;;;3.00;2.20;;;;;;;20.10;60.97;101782.72;108104;1276;60629;-84
2022/07/12 08:10:20;;;;;;;4.10;2.50;;;;;;;20.22;60.49;101784.35;108139;1276;74966;-84
2022/07/12 08:12:47;;;;;;;4.10;2.60;;;;;;;20.23;60.52;101783.55;108268;1277;72677;-85
2022/07/12 08:15:14;;;;;;;5.70;3.10;;;;;;;20.28;60.41;101778.72;108003;1276;74005;-85
2022/07/12 08:17:41;;;;;;;3.90;2.30;;;;;;;20.41;60.36;101779.46;108231;1276;61356;-84
2022/07/12 08:20:16;;;;;;;4.70;2.80;;;;;;;20.57;60.53;101783.02;108027;1276;61560;-85
2022/07/12 08:23:03;;;;;;;6.90;4.60;;;;;;;20.70;60.02;101780.77;108113;1277;77034;-85
2022/07/12 08:25:30;;;;;;;4.30;2.50;;;;;;;20.81;59.93;101777.14;108262;1276;71591;-85
2022/07/12 08:27:57;;;;;;;2.70;2.10;;;;;;;20.86;58.99;101786.23;108273;1276;73066;-84
2022/07/12 08:30:24;;;;;;;6.30;2.60;;;;;;;20.71;58.61;101786.81;108115;1277;60317;-85
2022/07/12 08:32:51;;;;;;;4.10;2.40;;;;;;;20.71;59.09;101778.56;108092;1277;60604;-85
2022/07/12 08:35:18;;;;;;;3.60;2.20;;;;;;;20.80;59.44;101775.65;108236;1277;75398;-84
2022/07/12 08:37:45;;;;;;;6.30;2.40;;;;;;;20.86;58.08;101780.42;108080;1277;71633;-85
2022/07/12 08:40:12;;;;;;;4.40;2.80;;;;;;;20.83;57.98;101783.23;107965;1276;72749;-85
2022/07/12 08:42:43;;;;;;;2.50;2.10;;;;;;;20.86;57.77;101781.66;108055;1277;60350;-81
2022/07/12 08:45:10;;;;;;;3.40;2.40;;;;;;;20.88;58.35;101778.55;108172;1276;60317;-81
2022/07/12 08:47:37;;;;;;;10.20;7.00;;;;;;;20.90;58.19;101774.20;108096;1277;74757;-81
2022/07/12 08:50:16;;;;;;;10.10;7.70;;;;;;;20.99;58.68;101774.56;108303;1276;71959;-81
2022/07/12 08:52:46;;;;;;;3.30;2.30;;;;;;;21.16;59.08;101769.71;108188;1277;73382;-81
2022/07/12 08:55:28;;;;;;;3.30;2.10;;;;;;;21.34;58.60;101769.95;108182;1275;60676;-81
2022/07/12 08:57:57;;;;;;;3.10;2.20;;;;;;;21.53;57.57;101772.35;108212;1275;61913;-81
2022/07/12 09:00:25;;;;;;;2.40;1.90;;;;;;;21.57;56.48;101772.60;108351;1276;74990;-81
2022/07/12 09:02:53;;;;;;;2.40;1.90;;;;;;;21.46;55.90;101774.35;108255;1276;71427;-81
2022/07/12 09:05:22;;;;;;;3.60;1.80;;;;;;;21.52;56.74;101770.48;108265;1276;73922;-81
2022/07/12 09:07:50;;;;;;;4.90;2.30;;;;;;;21.57;56.22;101772.23;108306;1276;60663;-81
2022/07/12 09:10:18;;;;;;;2.70;1.90;;;;;;;21.55;55.81;101781.42;108153;1277;61568;-81
2022/07/12 09:12:46;;;;;;;2.70;1.90;;;;;;;21.58;56.07;101780.80;108106;1276;74805;-80
2022/07/12 09:15:16;;;;;;;2.50;2.10;;;;;;;21.51;55.27;101788.27;108116;1276;71649;-81
2022/07/12 09:17:56;;;;;;;5.30;2.20;;;;;;;21.49;55.54;101789.12;108274;1275;73897;-81
2022/07/12 09:20:24;;;;;;;2.90;2.30;;;;;;;21.59;55.62;101786.80;108270;1276;63357;-81
2022/07/12 09:22:54;;;;;;;4.60;2.40;;;;;;;21.66;55.40;101788.59;108292;1276;60583;-81
2022/07/12 09:25:22;;;;;;;3.00;2.00;;;;;;;21.80;55.05;101786.80;108310;1276;75123;-82
2022/07/12 09:27:54;;;;;;;4.70;2.00;;;;;;;21.90;54.96;101778.84;108284;1276;71447;-81
2022/07/12 09:30:24;;;;;;;3.70;2.00;;;;;;;22.06;54.82;101778.74;108121;1276;73051;-81
2022/07/12 09:36:12;;;;;;;4.30;2.00;;;;;;;22.15;53.82;101775.11;108272;1276;60302;-81
2022/07/12 09:38:53;;;;;;;4.00;2.30;;;;;;;22.29;54.52;101768.52;108149;1276;75042;-81
2022/07/12 09:41:21;;;;;;;2.30;2.00;;;;;;;22.47;53.73;101761.41;108228;1276;72664;-81
2022/07/12 09:43:49;;;;;;;3.70;2.30;;;;;;;22.62;53.26;101762.20;108258;1276;72970;-81
2022/07/12 09:46:17;;;;;;;4.00;2.10;;;;;;;22.82;53.34;101761.34;108273;1277;60993;-81
2022/07/12 09:48:45;;;;;;;3.20;2.30;;;;;;;22.88;50.89;101759.88;108040;1277;59131;-81
2022/07/12 09:51:17;;;;;;;3.10;2.00;;;;;;;22.90;50.77;101757.37;108302;1276;75330;-81
2022/07/12 09:53:48;;;;;;;2.50;1.80;;;;;;;22.95;49.91;101753.80;108254;1276;71156;-81
2022/07/12 09:56:18;;;;;;;2.10;1.70;;;;;;;23.03;49.87;101754.09;108044;1277;73444;-81
2022/07/12 09:58:53;;;;;;;2.40;1.70;;;;;;;23.12;49.15;101745.33;108067;1277;62210;-81
2022/07/12 10:01:21;;;;;;;3.30;2.00;;;;;;;23.15;49.67;101746.35;108096;1276;61668;-81
2022/07/12 10:03:49;;;;;;;2.40;2.10;;;;;;;23.25;50.37;101751.45;108105;1277;74347;-81
2022/07/12 10:06:28;;;;;;;2.70;2.00;;;;;;;23.35;49.41;101757.31;108138;1276;72004;-82
2022/07/12 10:09:03;;;;;;;3.30;2.10;;;;;;;23.38;49.37;101761.46;108076;1276;71470;-82
2022/07/12 10:11:30;;;;;;;3.90;1.90;;;;;;;23.40;48.67;101763.60;108131;1277;60602;-81
2022/07/12 10:14:19;;;;;;;3.10;1.80;;;;;;;23.55;48.79;101761.09;108114;1277;61705;-81
2022/07/12 10:16:50;;;;;;;2.50;1.70;;;;;;;23.68;47.61;101755.10;108259;1277;76173;-82
2022/07/12 10:19:24;;;;;;;2.60;1.80;;;;;;;23.70;46.63;101760.71;107996;1276;73146;-81
2022/07/12 10:21:59;;;;;;;2.40;1.70;;;;;;;23.75;46.34;101757.33;108187;1277;74231;-81
2022/07/12 10:24:32;;;;;;;2.20;1.70;;;;;;;23.83;45.58;101746.67;108073;1277;60880;-81
2022/07/12 10:27:20;;;;;;;2.40;1.50;;;;;;;23.97;44.06;101751.04;108334;1275;60306;-81
2022/07/12 10:29:49;;;;;;;2.20;1.80;;;;;;;24.14;44.57;101753.62;108142;1276;74171;-81
2022/07/12 10:32:35;;;;;;;7.20;6.30;;;;;;;24.26;44.70;101751.28;108123;1277;72133;-81
2022/07/12 10:35:05;;;;;;;3.80;3.10;;;;;;;24.43;44.75;101748.55;108277;1276;74176;-81
2022/07/12 10:37:34;;;;;;;2.80;1.60;;;;;;;24.69;45.04;101751.92;108126;1277;61697;-81
2022/07/12 10:40:19;;;;;;;3.00;1.50;;;;;;;24.82;43.39;101752.20;108161;1277;61083;-81
2022/07/12 10:43:04;;;;;;;3.30;1.70;;;;;;;25.03;43.83;101743.83;108281;1276;76234;-82
2022/07/12 10:45:32;;;;;;;3.70;1.80;;;;;;;25.12;42.04;101744.63;108340;1276;71766;-82
2022/07/12 10:48:02;;;;;;;4.00;1.70;;;;;;;25.17;41.86;101737.05;108270;1276;73989;-81
2022/07/12 10:50:41;;;;;;;2.00;1.50;;;;;;;25.20;41.48;101731.81;108114;1277;60835;-81
2022/07/12 10:53:22;;;;;;;3.10;1.70;;;;;;;25.25;41.38;101727.30;108283;1276;62214;-81
2022/07/12 10:56:09;;;;;;;2.10;1.50;;;;;;;25.38;41.93;101720.23;108149;1277;75748;-81
2022/07/12 10:58:48;;;;;;;3.00;1.60;;;;;;;25.42;41.35;101721.88;108435;1276;71554;-81
2022/07/12 11:01:25;;;;;;;2.80;1.70;;;;;;;25.40;40.85;101721.18;108445;1276;72905;-81
2022/07/12 11:04:03;;;;;;;3.20;1.70;;;;;;;25.43;41.21;101716.77;108489;1276;61951;-81
2022/07/12 11:06:33;;;;;;;1.90;1.40;;;;;;;25.61;42.36;101708.66;108438;1276;60162;-81
2022/07/12 11:09:04;;;;;;;2.30;1.80;;;;;;;25.88;41.88;101709.29;108337;1277;75508;-80
2022/07/12 11:11:54;;;;;;;3.60;1.60;;;;;;;25.92;40.35;101706.74;108321;1276;71594;-79
2022/07/12 11:14:23;;;;;;;2.10;1.50;;;;;;;25.92;40.12;101695.92;108313;1276;75570;-82
2022/07/12 11:16:54;;;;;;;2.40;1.60;;;;;;;25.95;40.00;101700.04;108271;1276;60611;-81
2022/07/12 11:19:23;;;;;;;2.20;1.50;;;;;;;26.01;39.45;101696.57;108182;1276;59412;-80
2022/07/12 11:21:55;;;;;;;2.80;1.60;;;;;;;26.11;39.42;101698.70;108244;1276;76747;-80
2022/07/12 11:24:23;;;;;;;1.80;1.30;;;;;;;26.31;39.90;101691.09;108054;1276;73690;-81
2022/07/12 11:26:52;;;;;;;1.90;1.40;;;;;;;26.49;39.76;101691.59;108137;1277;73862;-80
2022/07/12 11:29:19;;;;;;;3.40;1.80;;;;;;;26.62;39.65;101693.59;107970;1277;61692;-81
2022/07/12 11:31:47;;;;;;;2.40;1.60;;;;;;;26.65;38.29;101699.98;108285;1277;61971;-80